sensor_id;sensor_type;location;lat;lon;timestamp;P1;durP1;ratioP1;P2;durP2;ratioP2
44822;SDS011;51097;51.984;5.650;2022-07-23T00:00:11;7.13;;;4.97;;
44822;SDS011;51097;51.984;5.650;2022-07-23T00:02:37;5.75;;;5.20;;
44822;SDS011;51097;51.984;5.650;2022-07-23T00:05:03;9.07;;;5.90;;
44822;SDS011;51097;51.984;5.650;2022-07-23T00:07:29;5.38;;;4.88;;
44822;SDS011;51097;51.984;5.650;2022-07-23T00:09:54;5.80;;;5.30;;
44822;SDS011;51097;51.984;5.650;2022-07-23T00:12:20;6.53;;;4.32;;
44822;SDS011;51097;51.984;5.650;2022-07-23T00:14:46;5.43;;;3.97;;
44822;SDS011;51097;51.984;5.650;2022-07-23T00:17:12;9.27;;;5.32;;
44822;SDS011;51097;51.984;5.650;2022-07-23T00:19:37;7.22;;;4.68;;
44822;SDS011;51097;51.984;5.650;2022-07-23T00:22:03;4.95;;;4.45;;
44822;SDS011;51097;51.984;5.650;2022-07-23T00:24:29;5.65;;;4.80;;
44822;SDS011;51097;51.984;5.650;2022-07-23T00:26:54;6.32;;;4.85;;
44822;SDS011;51097;51.984;5.650;2022-07-23T00:29:20;5.10;;;4.00;;
44822;SDS011;51097;51.984;5.650;2022-07-23T00:31:45;6.00;;;5.20;;
44822;SDS011;51097;51.984;5.650;2022-07-23T00:34:11;7.90;;;4.75;;
44822;SDS011;51097;51.984;5.650;2022-07-23T00:36:37;8.80;;;5.15;;
44822;SDS011;51097;51.984;5.650;2022-07-23T00:39:03;10.98;;;4.18;;
44822;SDS011;51097;51.984;5.650;2022-07-23T00:41:28;6.47;;;4.18;;
44822;SDS011;51097;51.984;5.650;2022-07-23T00:43:54;5.20;;;4.07;;
44822;SDS011;51097;51.984;5.650;2022-07-23T00:46:20;5.88;;;4.70;;
44822;SDS011;51097;51.984;5.650;2022-07-23T00:48:47;5.03;;;4.45;;
44822;SDS011;51097;51.984;5.650;2022-07-23T00:51:14;6.53;;;4.28;;
44822;SDS011;51097;51.984;5.650;2022-07-23T00:53:41;7.03;;;5.72;;
44822;SDS011;51097;51.984;5.650;2022-07-23T00:56:07;7.30;;;3.80;;
44822;SDS011;51097;51.984;5.650;2022-07-23T00:58:34;6.18;;;3.80;;
44822;SDS011;51097;51.984;5.650;2022-07-23T01:01:00;7.53;;;4.88;;
44822;SDS011;51097;51.984;5.650;2022-07-23T01:03:26;5.95;;;4.63;;
44822;SDS011;51097;51.984;5.650;2022-07-23T01:05:52;6.82;;;5.75;;
44822;SDS011;51097;51.984;5.650;2022-07-23T01:08:18;7.57;;;4.35;;
44822;SDS011;51097;51.984;5.650;2022-07-23T01:10:44;7.70;;;5.28;;
44822;SDS011;51097;51.984;5.650;2022-07-23T01:13:11;5.20;;;4.70;;
44822;SDS011;51097;51.984;5.650;2022-07-23T01:15:37;6.03;;;4.43;;
44822;SDS011;51097;51.984;5.650;2022-07-23T01:18:03;5.38;;;4.88;;
44822;SDS011;51097;51.984;5.650;2022-07-23T01:20:30;6.80;;;5.25;;
44822;SDS011;51097;51.984;5.650;2022-07-23T01:22:57;5.32;;;4.07;;
44822;SDS011;51097;51.984;5.650;2022-07-23T01:25:23;7.60;;;3.95;;
44822;SDS011;51097;51.984;5.650;2022-07-23T01:27:49;5.22;;;4.10;;
44822;SDS011;51097;51.984;5.650;2022-07-23T01:30:16;4.30;;;3.55;;
44822;SDS011;51097;51.984;5.650;2022-07-23T01:32:41;5.60;;;4.40;;
44822;SDS011;51097;51.984;5.650;2022-07-23T01:35:07;7.00;;;4.32;;
44822;SDS011;51097;51.984;5.650;2022-07-23T01:37:34;5.80;;;4.13;;
44822;SDS011;51097;51.984;5.650;2022-07-23T01:39:59;5.13;;;4.35;;
44822;SDS011;51097;51.984;5.650;2022-07-23T01:42:25;4.50;;;3.88;;
44822;SDS011;51097;51.984;5.650;2022-07-23T01:44:51;5.00;;;4.50;;
44822;SDS011;51097;51.984;5.650;2022-07-23T01:47:16;4.82;;;3.83;;
44822;SDS011;51097;51.984;5.650;2022-07-23T01:49:42;6.32;;;4.18;;
44822;SDS011;51097;51.984;5.650;2022-07-23T01:52:07;5.38;;;4.55;;
44822;SDS011;51097;51.984;5.650;2022-07-23T01:54:36;6.10;;;4.10;;
44822;SDS011;51097;51.984;5.650;2022-07-23T01:57:03;11.88;;;4.78;;
44822;SDS011;51097;51.984;5.650;2022-07-23T01:59:29;5.72;;;4.40;;
44822;SDS011;51097;51.984;5.650;2022-07-23T02:01:55;7.60;;;4.25;;
44822;SDS011;51097;51.984;5.650;2022-07-23T02:04:21;5.18;;;4.40;;
44822;SDS011;51097;51.984;5.650;2022-07-23T02:06:48;4.82;;;4.00;;
44822;SDS011;51097;51.984;5.650;2022-07-23T02:09:14;5.63;;;4.10;;
44822;SDS011;51097;51.984;5.650;2022-07-23T02:11:40;6.03;;;3.65;;
44822;SDS011;51097;51.984;5.650;2022-07-23T02:14:05;6.57;;;4.57;;
44822;SDS011;51097;51.984;5.650;2022-07-23T02:16:31;4.63;;;3.72;;
44822;SDS011;51097;51.984;5.650;2022-07-23T02:18:57;5.50;;;3.83;;
44822;SDS011;51097;51.984;5.650;2022-07-23T02:21:22;6.07;;;3.47;;
44822;SDS011;51097;51.984;5.650;2022-07-23T02:23:48;6.68;;;4.43;;
44822;SDS011;51097;51.984;5.650;2022-07-23T02:26:14;5.60;;;4.43;;
44822;SDS011;51097;51.984;5.650;2022-07-23T02:28:39;6.45;;;3.95;;
44822;SDS011;51097;51.984;5.650;2022-07-23T02:31:05;6.15;;;3.45;;
44822;SDS011;51097;51.984;5.650;2022-07-23T02:33:31;3.42;;;3.13;;
44822;SDS011;51097;51.984;5.650;2022-07-23T02:35:57;5.15;;;3.50;;
44822;SDS011;51097;51.984;5.650;2022-07-23T02:38:23;4.07;;;3.53;;
44822;SDS011;51097;51.984;5.650;2022-07-23T02:40:49;5.47;;;3.55;;
44822;SDS011;51097;51.984;5.650;2022-07-23T02:43:14;4.60;;;3.90;;
44822;SDS011;51097;51.984;5.650;2022-07-23T02:45:40;5.53;;;3.42;;
44822;SDS011;51097;51.984;5.650;2022-07-23T02:48:05;3.90;;;3.55;;
44822;SDS011;51097;51.984;5.650;2022-07-23T02:50:31;4.40;;;4.00;;
44822;SDS011;51097;51.984;5.650;2022-07-23T02:52:56;7.05;;;3.90;;
44822;SDS011;51097;51.984;5.650;2022-07-23T02:55:22;6.50;;;3.88;;
44822;SDS011;51097;51.984;5.650;2022-07-23T02:57:47;6.18;;;4.30;;
44822;SDS011;51097;51.984;5.650;2022-07-23T03:00:13;6.28;;;3.88;;
44822;SDS011;51097;51.984;5.650;2022-07-23T03:02:39;4.55;;;3.97;;
44822;SDS011;51097;51.984;5.650;2022-07-23T03:05:05;4.57;;;3.22;;
44822;SDS011;51097;51.984;5.650;2022-07-23T03:07:31;3.50;;;3.20;;
44822;SDS011;51097;51.984;5.650;2022-07-23T03:09:56;6.45;;;4.22;;
44822;SDS011;51097;51.984;5.650;2022-07-23T03:12:22;5.25;;;3.72;;
44822;SDS011;51097;51.984;5.650;2022-07-23T03:14:48;8.82;;;4.80;;
44822;SDS011;51097;51.984;5.650;2022-07-23T03:17:13;5.47;;;3.35;;
44822;SDS011;51097;51.984;5.650;2022-07-23T03:19:39;7.00;;;3.80;;
44822;SDS011;51097;51.984;5.650;2022-07-23T03:22:04;6.30;;;3.95;;
44822;SDS011;51097;51.984;5.650;2022-07-23T03:24:30;5.28;;;3.97;;
44822;SDS011;51097;51.984;5.650;2022-07-23T03:27:14;6.22;;;4.15;;
44822;SDS011;51097;51.984;5.650;2022-07-23T03:29:40;5.82;;;3.88;;
44822;SDS011;51097;51.984;5.650;2022-07-23T03:32:06;4.47;;;4.03;;
44822;SDS011;51097;51.984;5.650;2022-07-23T03:34:31;4.28;;;3.83;;
44822;SDS011;51097;51.984;5.650;2022-07-23T03:36:57;9.85;;;4.68;;
44822;SDS011;51097;51.984;5.650;2022-07-23T03:39:23;6.50;;;4.68;;
44822;SDS011;51097;51.984;5.650;2022-07-23T03:41:48;7.75;;;5.25;;
44822;SDS011;51097;51.984;5.650;2022-07-23T03:44:14;5.93;;;4.32;;
44822;SDS011;51097;51.984;5.650;2022-07-23T03:46:39;4.65;;;3.90;;
44822;SDS011;51097;51.984;5.650;2022-07-23T03:49:05;4.18;;;3.38;;
44822;SDS011;51097;51.984;5.650;2022-07-23T03:51:30;4.97;;;4.35;;
44822;SDS011;51097;51.984;5.650;2022-07-23T03:53:57;5.00;;;3.92;;
44822;SDS011;51097;51.984;5.650;2022-07-23T03:56:22;4.97;;;4.50;;
44822;SDS011;51097;51.984;5.650;2022-07-23T03:58:48;7.97;;;5.30;;
44822;SDS011;51097;51.984;5.650;2022-07-23T04:01:13;6.53;;;4.45;;
44822;SDS011;51097;51.984;5.650;2022-07-23T04:03:39;7.60;;;4.78;;
44822;SDS011;51097;51.984;5.650;2022-07-23T04:06:05;8.40;;;4.55;;
44822;SDS011;51097;51.984;5.650;2022-07-23T04:08:31;6.35;;;3.95;;
44822;SDS011;51097;51.984;5.650;2022-07-23T04:10:56;5.65;;;3.95;;
44822;SDS011;51097;51.984;5.650;2022-07-23T04:13:22;7.75;;;5.18;;
44822;SDS011;51097;51.984;5.650;2022-07-23T04:15:48;6.20;;;4.45;;
44822;SDS011;51097;51.984;5.650;2022-07-23T04:18:13;7.45;;;5.30;;
44822;SDS011;51097;51.984;5.650;2022-07-23T04:20:42;5.47;;;4.30;;
44822;SDS011;51097;51.984;5.650;2022-07-23T04:23:08;6.50;;;3.88;;
44822;SDS011;51097;51.984;5.650;2022-07-23T04:25:34;6.45;;;4.53;;
44822;SDS011;51097;51.984;5.650;2022-07-23T04:28:00;4.63;;;4.20;;
44822;SDS011;51097;51.984;5.650;2022-07-23T04:30:25;4.95;;;3.95;;
44822;SDS011;51097;51.984;5.650;2022-07-23T04:32:51;4.03;;;3.63;;
44822;SDS011;51097;51.984;5.650;2022-07-23T04:35:16;5.88;;;4.95;;
44822;SDS011;51097;51.984;5.650;2022-07-23T04:37:42;6.03;;;4.80;;
44822;SDS011;51097;51.984;5.650;2022-07-23T04:40:08;5.78;;;4.18;;
44822;SDS011;51097;51.984;5.650;2022-07-23T04:42:34;5.80;;;4.85;;
44822;SDS011;51097;51.984;5.650;2022-07-23T04:45:00;6.53;;;5.20;;
44822;SDS011;51097;51.984;5.650;2022-07-23T04:47:25;7.82;;;5.40;;
44822;SDS011;51097;51.984;5.650;2022-07-23T04:49:51;5.88;;;5.22;;
44822;SDS011;51097;51.984;5.650;2022-07-23T04:52:16;5.78;;;4.82;;
44822;SDS011;51097;51.984;5.650;2022-07-23T04:54:42;5.90;;;4.95;;
44822;SDS011;51097;51.984;5.650;2022-07-23T04:57:07;7.20;;;5.65;;
44822;SDS011;51097;51.984;5.650;2022-07-23T04:59:33;7.70;;;6.07;;
44822;SDS011;51097;51.984;5.650;2022-07-23T05:01:58;8.30;;;5.07;;
44822;SDS011;51097;51.984;5.650;2022-07-23T05:04:24;6.57;;;5.35;;
44822;SDS011;51097;51.984;5.650;2022-07-23T05:06:49;9.93;;;6.22;;
44822;SDS011;51097;51.984;5.650;2022-07-23T05:09:15;7.50;;;6.35;;
44822;SDS011;51097;51.984;5.650;2022-07-23T05:11:40;8.02;;;6.70;;
44822;SDS011;51097;51.984;5.650;2022-07-23T05:14:06;6.60;;;5.85;;
44822;SDS011;51097;51.984;5.650;2022-07-23T05:16:31;6.65;;;6.03;;
44822;SDS011;51097;51.984;5.650;2022-07-23T05:18:57;10.68;;;7.80;;
44822;SDS011;51097;51.984;5.650;2022-07-23T05:21:22;9.23;;;7.28;;
44822;SDS011;51097;51.984;5.650;2022-07-23T05:23:48;11.95;;;7.18;;
44822;SDS011;51097;51.984;5.650;2022-07-23T05:26:17;10.82;;;6.78;;
44822;SDS011;51097;51.984;5.650;2022-07-23T05:28:42;10.38;;;6.65;;
44822;SDS011;51097;51.984;5.650;2022-07-23T05:31:08;8.20;;;6.00;;
44822;SDS011;51097;51.984;5.650;2022-07-23T05:33:33;12.45;;;8.25;;
44822;SDS011;51097;51.984;5.650;2022-07-23T05:36:02;8.25;;;7.07;;
44822;SDS011;51097;51.984;5.650;2022-07-23T05:38:29;9.73;;;7.60;;
44822;SDS011;51097;51.984;5.650;2022-07-23T05:40:55;9.13;;;8.23;;
44822;SDS011;51097;51.984;5.650;2022-07-23T05:43:21;15.75;;;8.43;;
44822;SDS011;51097;51.984;5.650;2022-07-23T05:45:46;10.50;;;7.85;;
44822;SDS011;51097;51.984;5.650;2022-07-23T05:48:12;11.85;;;8.88;;
44822;SDS011;51097;51.984;5.650;2022-07-23T05:50:37;15.93;;;8.75;;
44822;SDS011;51097;51.984;5.650;2022-07-23T05:53:03;11.55;;;7.32;;
44822;SDS011;51097;51.984;5.650;2022-07-23T05:55:29;9.75;;;7.38;;
44822;SDS011;51097;51.984;5.650;2022-07-23T05:57:56;10.65;;;8.57;;
44822;SDS011;51097;51.984;5.650;2022-07-23T06:00:22;9.98;;;7.95;;
44822;SDS011;51097;51.984;5.650;2022-07-23T06:02:49;12.32;;;7.65;;
44822;SDS011;51097;51.984;5.650;2022-07-23T06:05:15;12.02;;;7.85;;
44822;SDS011;51097;51.984;5.650;2022-07-23T06:07:41;10.88;;;7.60;;
44822;SDS011;51097;51.984;5.650;2022-07-23T06:10:14;10.52;;;7.88;;
44822;SDS011;51097;51.984;5.650;2022-07-23T06:12:39;8.48;;;6.85;;
44822;SDS011;51097;51.984;5.650;2022-07-23T06:15:06;7.13;;;6.28;;
44822;SDS011;51097;51.984;5.650;2022-07-23T06:17:32;8.55;;;6.10;;
44822;SDS011;51097;51.984;5.650;2022-07-23T06:19:58;7.13;;;5.32;;
44822;SDS011;51097;51.984;5.650;2022-07-23T06:22:23;7.45;;;6.10;;
44822;SDS011;51097;51.984;5.650;2022-07-23T06:24:49;11.00;;;6.32;;
44822;SDS011;51097;51.984;5.650;2022-07-23T06:27:16;11.07;;;6.65;;
44822;SDS011;51097;51.984;5.650;2022-07-23T06:29:42;9.57;;;5.90;;
44822;SDS011;51097;51.984;5.650;2022-07-23T06:32:08;7.63;;;5.47;;
44822;SDS011;51097;51.984;5.650;2022-07-23T06:34:33;8.35;;;5.75;;
44822;SDS011;51097;51.984;5.650;2022-07-23T06:36:59;7.68;;;6.22;;
44822;SDS011;51097;51.984;5.650;2022-07-23T06:39:25;9.95;;;5.35;;
44822;SDS011;51097;51.984;5.650;2022-07-23T06:41:51;6.13;;;5.18;;
44822;SDS011;51097;51.984;5.650;2022-07-23T06:44:17;8.75;;;5.25;;
44822;SDS011;51097;51.984;5.650;2022-07-23T06:46:42;5.30;;;3.97;;
44822;SDS011;51097;51.984;5.650;2022-07-23T06:49:08;5.88;;;4.22;;
44822;SDS011;51097;51.984;5.650;2022-07-23T06:51:34;7.30;;;4.75;;
44822;SDS011;51097;51.984;5.650;2022-07-23T06:54:00;10.95;;;4.68;;
44822;SDS011;51097;51.984;5.650;2022-07-23T06:56:25;6.43;;;3.78;;
44822;SDS011;51097;51.984;5.650;2022-07-23T06:58:51;6.85;;;3.90;;
44822;SDS011;51097;51.984;5.650;2022-07-23T07:01:17;5.72;;;4.05;;
44822;SDS011;51097;51.984;5.650;2022-07-23T07:03:42;8.27;;;4.13;;
44822;SDS011;51097;51.984;5.650;2022-07-23T07:06:08;5.47;;;4.00;;
44822;SDS011;51097;51.984;5.650;2022-07-23T07:08:34;6.28;;;3.63;;
44822;SDS011;51097;51.984;5.650;2022-07-23T07:10:59;6.55;;;3.97;;
44822;SDS011;51097;51.984;5.650;2022-07-23T07:13:25;5.47;;;3.85;;
44822;SDS011;51097;51.984;5.650;2022-07-23T07:15:50;4.55;;;3.88;;
44822;SDS011;51097;51.984;5.650;2022-07-23T07:18:16;5.13;;;3.80;;
44822;SDS011;51097;51.984;5.650;2022-07-23T07:20:42;8.00;;;4.13;;
44822;SDS011;51097;51.984;5.650;2022-07-23T07:23:07;6.63;;;4.20;;
44822;SDS011;51097;51.984;5.650;2022-07-23T07:25:33;5.40;;;4.25;;
44822;SDS011;51097;51.984;5.650;2022-07-23T07:27:59;6.70;;;4.47;;
44822;SDS011;51097;51.984;5.650;2022-07-23T07:30:24;7.72;;;4.70;;
44822;SDS011;51097;51.984;5.650;2022-07-23T07:32:50;8.65;;;4.60;;
44822;SDS011;51097;51.984;5.650;2022-07-23T07:35:15;6.28;;;4.55;;
44822;SDS011;51097;51.984;5.650;2022-07-23T07:37:41;4.93;;;4.38;;
44822;SDS011;51097;51.984;5.650;2022-07-23T07:40:06;6.25;;;5.22;;
44822;SDS011;51097;51.984;5.650;2022-07-23T07:42:32;6.82;;;5.03;;
44822;SDS011;51097;51.984;5.650;2022-07-23T07:44:58;6.05;;;4.68;;
44822;SDS011;51097;51.984;5.650;2022-07-23T07:47:24;7.38;;;5.47;;
44822;SDS011;51097;51.984;5.650;2022-07-23T07:49:50;6.45;;;4.80;;
44822;SDS011;51097;51.984;5.650;2022-07-23T07:52:15;5.88;;;5.13;;
44822;SDS011;51097;51.984;5.650;2022-07-23T07:54:41;6.88;;;5.30;;
44822;SDS011;51097;51.984;5.650;2022-07-23T07:57:07;7.20;;;4.13;;
44822;SDS011;51097;51.984;5.650;2022-07-23T07:59:33;7.75;;;5.03;;
44822;SDS011;51097;51.984;5.650;2022-07-23T08:01:59;5.13;;;4.38;;
44822;SDS011;51097;51.984;5.650;2022-07-23T08:04:24;6.63;;;4.80;;
44822;SDS011;51097;51.984;5.650;2022-07-23T08:06:50;5.35;;;4.28;;
44822;SDS011;51097;51.984;5.650;2022-07-23T08:09:15;7.13;;;4.70;;
44822;SDS011;51097;51.984;5.650;2022-07-23T08:11:41;6.07;;;5.50;;
44822;SDS011;51097;51.984;5.650;2022-07-23T08:14:06;7.60;;;4.90;;
44822;SDS011;51097;51.984;5.650;2022-07-23T08:16:32;6.63;;;4.40;;
44822;SDS011;51097;51.984;5.650;2022-07-23T08:18:58;5.80;;;4.82;;
44822;SDS011;51097;51.984;5.650;2022-07-23T08:21:23;5.20;;;3.70;;
44822;SDS011;51097;51.984;5.650;2022-07-23T08:23:49;5.35;;;3.75;;
44822;SDS011;51097;51.984;5.650;2022-07-23T08:26:14;4.18;;;3.03;;
44822;SDS011;51097;51.984;5.650;2022-07-23T08:28:40;5.40;;;4.43;;
44822;SDS011;51097;51.984;5.650;2022-07-23T08:31:05;4.57;;;3.97;;
44822;SDS011;51097;51.984;5.650;2022-07-23T08:33:31;5.10;;;4.03;;
44822;SDS011;51097;51.984;5.650;2022-07-23T08:35:57;5.57;;;3.70;;
44822;SDS011;51097;51.984;5.650;2022-07-23T08:38:23;6.15;;;4.30;;
44822;SDS011;51097;51.984;5.650;2022-07-23T08:40:50;7.07;;;4.47;;
44822;SDS011;51097;51.984;5.650;2022-07-23T08:43:18;8.05;;;4.25;;
44822;SDS011;51097;51.984;5.650;2022-07-23T08:45:46;7.05;;;4.03;;
44822;SDS011;51097;51.984;5.650;2022-07-23T08:48:20;5.88;;;4.63;;
44822;SDS011;51097;51.984;5.650;2022-07-23T08:50:48;5.13;;;4.68;;
44822;SDS011;51097;51.984;5.650;2022-07-23T08:53:15;5.80;;;5.15;;
44822;SDS011;51097;51.984;5.650;2022-07-23T08:55:43;5.28;;;4.78;;
44822;SDS011;51097;51.984;5.650;2022-07-23T08:58:10;5.70;;;4.30;;
44822;SDS011;51097;51.984;5.650;2022-07-23T09:00:36;7.88;;;4.40;;
44822;SDS011;51097;51.984;5.650;2022-07-23T09:03:02;4.97;;;4.57;;
44822;SDS011;51097;51.984;5.650;2022-07-23T09:05:28;6.90;;;4.28;;
44822;SDS011;51097;51.984;5.650;2022-07-23T09:10:28;7.97;;;4.55;;
44822;SDS011;51097;51.984;5.650;2022-07-23T09:12:54;6.82;;;5.00;;
44822;SDS011;51097;51.984;5.650;2022-07-23T09:15:20;6.25;;;4.53;;
44822;SDS011;51097;51.984;5.650;2022-07-23T09:17:45;9.48;;;4.95;;
44822;SDS011;51097;51.984;5.650;2022-07-23T09:20:13;7.85;;;5.00;;
44822;SDS011;51097;51.984;5.650;2022-07-23T09:22:40;5.50;;;5.00;;
44822;SDS011;51097;51.984;5.650;2022-07-23T09:25:16;5.18;;;4.68;;
44822;SDS011;51097;51.984;5.650;2022-07-23T09:27:50;5.93;;;4.82;;
44822;SDS011;51097;51.984;5.650;2022-07-23T09:30:17;8.10;;;5.70;;
44822;SDS011;51097;51.984;5.650;2022-07-23T09:32:44;5.65;;;4.28;;
44822;SDS011;51097;51.984;5.650;2022-07-23T09:35:09;5.65;;;5.05;;
44822;SDS011;51097;51.984;5.650;2022-07-23T09:37:35;5.35;;;4.85;;
44822;SDS011;51097;51.984;5.650;2022-07-23T09:40:05;5.57;;;4.72;;
44822;SDS011;51097;51.984;5.650;2022-07-23T09:42:32;6.90;;;5.22;;
44822;SDS011;51097;51.984;5.650;2022-07-23T09:44:58;6.78;;;5.30;;
44822;SDS011;51097;51.984;5.650;2022-07-23T09:47:27;8.40;;;5.57;;
44822;SDS011;51097;51.984;5.650;2022-07-23T09:49:58;6.72;;;5.13;;
44822;SDS011;51097;51.984;5.650;2022-07-23T09:52:29;7.03;;;4.05;;
44822;SDS011;51097;51.984;5.650;2022-07-23T09:54:57;5.50;;;4.03;;
44822;SDS011;51097;51.984;5.650;2022-07-23T09:57:28;3.95;;;3.65;;
44822;SDS011;51097;51.984;5.650;2022-07-23T09:59:53;6.40;;;4.50;;
44822;SDS011;51097;51.984;5.650;2022-07-23T10:02:22;6.55;;;4.15;;
44822;SDS011;51097;51.984;5.650;2022-07-23T10:04:49;5.18;;;4.07;;
44822;SDS011;51097;51.984;5.650;2022-07-23T10:07:18;5.07;;;3.45;;
44822;SDS011;51097;51.984;5.650;2022-07-23T10:09:50;5.47;;;4.28;;
44822;SDS011;51097;51.984;5.650;2022-07-23T10:12:17;9.75;;;4.68;;
44822;SDS011;51097;51.984;5.650;2022-07-23T10:15:19;6.53;;;4.13;;
44822;SDS011;51097;51.984;5.650;2022-07-23T10:17:44;4.63;;;4.22;;
44822;SDS011;51097;51.984;5.650;2022-07-23T10:20:10;9.55;;;5.07;;
44822;SDS011;51097;51.984;5.650;2022-07-23T10:25:49;7.10;;;5.10;;
44822;SDS011;51097;51.984;5.650;2022-07-23T10:28:09;6.63;;;3.65;;
44822;SDS011;51097;51.984;5.650;2022-07-23T10:33:26;6.80;;;5.05;;
44822;SDS011;51097;51.984;5.650;2022-07-23T10:36:28;6.93;;;4.18;;
44822;SDS011;51097;51.984;5.650;2022-07-23T10:41:41;5.88;;;4.68;;
44822;SDS011;51097;51.984;5.650;2022-07-23T10:44:17;6.15;;;5.47;;
44822;SDS011;51097;51.984;5.650;2022-07-23T10:47:01;6.20;;;4.88;;
44822;SDS011;51097;51.984;5.650;2022-07-23T10:49:31;5.82;;;4.50;;
44822;SDS011;51097;51.984;5.650;2022-07-23T10:54:39;9.30;;;4.40;;
44822;SDS011;51097;51.984;5.650;2022-07-23T10:57:09;9.77;;;6.43;;
44822;SDS011;51097;51.984;5.650;2022-07-23T11:02:30;5.28;;;4.82;;
44822;SDS011;51097;51.984;5.650;2022-07-23T11:05:00;5.43;;;4.68;;
44822;SDS011;51097;51.984;5.650;2022-07-23T11:07:29;4.78;;;4.38;;
44822;SDS011;51097;51.984;5.650;2022-07-23T11:09:55;6.85;;;4.40;;
44822;SDS011;51097;51.984;5.650;2022-07-23T11:17:33;6.07;;;5.10;;
44822;SDS011;51097;51.984;5.650;2022-07-23T11:22:37;6.85;;;4.82;;
44822;SDS011;51097;51.984;5.650;2022-07-23T11:25:03;6.30;;;4.25;;
44822;SDS011;51097;51.984;5.650;2022-07-23T11:27:36;5.00;;;3.72;;
44822;SDS011;51097;51.984;5.650;2022-07-23T11:30:03;6.55;;;4.75;;
44822;SDS011;51097;51.984;5.650;2022-07-23T11:32:30;4.95;;;4.55;;
44822;SDS011;51097;51.984;5.650;2022-07-23T11:34:58;5.32;;;4.55;;
44822;SDS011;51097;51.984;5.650;2022-07-23T11:39:59;5.90;;;4.32;;
44822;SDS011;51097;51.984;5.650;2022-07-23T11:42:26;5.47;;;4.47;;
44822;SDS011;51097;51.984;5.650;2022-07-23T11:44:52;5.15;;;4.53;;
44822;SDS011;51097;51.984;5.650;2022-07-23T11:47:21;5.45;;;4.47;;
44822;SDS011;51097;51.984;5.650;2022-07-23T11:49:55;6.35;;;3.92;;
44822;SDS011;51097;51.984;5.650;2022-07-23T11:52:23;4.82;;;4.43;;
44822;SDS011;51097;51.984;5.650;2022-07-23T11:54:53;5.82;;;5.20;;
44822;SDS011;51097;51.984;5.650;2022-07-23T11:57:21;6.50;;;5.20;;
44822;SDS011;51097;51.984;5.650;2022-07-23T11:59:51;4.40;;;4.00;;
44822;SDS011;51097;51.984;5.650;2022-07-23T12:02:20;3.97;;;3.67;;
44822;SDS011;51097;51.984;5.650;2022-07-23T12:04:47;4.88;;;4.38;;
44822;SDS011;51097;51.984;5.650;2022-07-23T12:09:56;3.85;;;3.55;;
44822;SDS011;51097;51.984;5.650;2022-07-23T12:12:23;3.90;;;2.75;;
44822;SDS011;51097;51.984;5.650;2022-07-23T12:14:50;6.88;;;3.38;;
44822;SDS011;51097;51.984;5.650;2022-07-23T12:17:16;4.80;;;2.75;;
44822;SDS011;51097;51.984;5.650;2022-07-23T12:19:41;3.40;;;2.95;;
44822;SDS011;51097;51.984;5.650;2022-07-23T12:22:07;3.70;;;2.90;;
44822;SDS011;51097;51.984;5.650;2022-07-23T12:27:22;3.80;;;2.95;;
44822;SDS011;51097;51.984;5.650;2022-07-23T12:29:48;3.30;;;2.78;;
44822;SDS011;51097;51.984;5.650;2022-07-23T12:32:27;2.78;;;2.58;;
44822;SDS011;51097;51.984;5.650;2022-07-23T12:35:07;3.55;;;3.25;;
44822;SDS011;51097;51.984;5.650;2022-07-23T12:37:35;5.70;;;2.88;;
44822;SDS011;51097;51.984;5.650;2022-07-23T12:40:18;6.03;;;3.17;;
44822;SDS011;51097;51.984;5.650;2022-07-23T12:42:56;4.47;;;3.20;;
44822;SDS011;51097;51.984;5.650;2022-07-23T12:45:46;4.07;;;3.05;;
44822;SDS011;51097;51.984;5.650;2022-07-23T12:53:20;5.93;;;3.00;;
44822;SDS011;51097;51.984;5.650;2022-07-23T12:55:48;4.82;;;2.85;;
44822;SDS011;51097;51.984;5.650;2022-07-23T12:58:16;4.03;;;3.08;;
44822;SDS011;51097;51.984;5.650;2022-07-23T13:01:00;3.28;;;2.97;;
44822;SDS011;51097;51.984;5.650;2022-07-23T13:03:29;5.80;;;3.00;;
44822;SDS011;51097;51.984;5.650;2022-07-23T13:06:00;3.03;;;2.65;;
44822;SDS011;51097;51.984;5.650;2022-07-23T13:08:29;4.05;;;3.58;;
44822;SDS011;51097;51.984;5.650;2022-07-23T13:10:55;3.53;;;2.42;;
44822;SDS011;51097;51.984;5.650;2022-07-23T13:13:29;4.07;;;2.75;;
44822;SDS011;51097;51.984;5.650;2022-07-23T13:15:56;6.20;;;3.30;;
44822;SDS011;51097;51.984;5.650;2022-07-23T13:18:23;4.75;;;2.78;;
44822;SDS011;51097;51.984;5.650;2022-07-23T13:20:49;4.55;;;3.80;;
44822;SDS011;51097;51.984;5.650;2022-07-23T13:23:15;4.00;;;2.90;;
44822;SDS011;51097;51.984;5.650;2022-07-23T13:25:42;6.00;;;2.80;;
44822;SDS011;51097;51.984;5.650;2022-07-23T13:28:11;4.05;;;3.42;;
44822;SDS011;51097;51.984;5.650;2022-07-23T13:30:37;3.75;;;3.10;;
44822;SDS011;51097;51.984;5.650;2022-07-23T13:33:07;3.28;;;2.53;;
44822;SDS011;51097;51.984;5.650;2022-07-23T13:35:33;6.95;;;2.88;;
44822;SDS011;51097;51.984;5.650;2022-07-23T13:38:01;3.00;;;2.42;;
44822;SDS011;51097;51.984;5.650;2022-07-23T13:40:27;3.85;;;3.03;;
44822;SDS011;51097;51.984;5.650;2022-07-23T13:42:53;3.90;;;2.53;;
44822;SDS011;51097;51.984;5.650;2022-07-23T13:45:19;2.50;;;2.17;;
44822;SDS011;51097;51.984;5.650;2022-07-23T13:47:45;3.40;;;2.78;;
44822;SDS011;51097;51.984;5.650;2022-07-23T13:50:11;2.92;;;2.58;;
44822;SDS011;51097;51.984;5.650;2022-07-23T13:52:36;3.08;;;2.25;;
44822;SDS011;51097;51.984;5.650;2022-07-23T13:55:03;3.55;;;2.17;;
44822;SDS011;51097;51.984;5.650;2022-07-23T13:57:30;2.72;;;1.95;;
44822;SDS011;51097;51.984;5.650;2022-07-23T13:59:57;3.05;;;2.28;;
44822;SDS011;51097;51.984;5.650;2022-07-23T14:02:22;5.75;;;2.75;;
44822;SDS011;51097;51.984;5.650;2022-07-23T14:04:48;4.95;;;2.63;;
44822;SDS011;51097;51.984;5.650;2022-07-23T14:07:15;7.93;;;3.15;;
44822;SDS011;51097;51.984;5.650;2022-07-23T14:09:41;3.55;;;2.47;;
44822;SDS011;51097;51.984;5.650;2022-07-23T14:12:07;2.70;;;2.50;;
44822;SDS011;51097;51.984;5.650;2022-07-23T14:14:33;2.72;;;2.33;;
44822;SDS011;51097;51.984;5.650;2022-07-23T14:16:59;4.28;;;2.85;;
44822;SDS011;51097;51.984;5.650;2022-07-23T14:19:25;3.13;;;2.42;;
44822;SDS011;51097;51.984;5.650;2022-07-23T14:21:51;3.05;;;2.35;;
44822;SDS011;51097;51.984;5.650;2022-07-23T14:24:16;2.83;;;2.50;;
44822;SDS011;51097;51.984;5.650;2022-07-23T14:26:42;3.95;;;2.40;;
44822;SDS011;51097;51.984;5.650;2022-07-23T14:29:08;3.28;;;2.40;;
44822;SDS011;51097;51.984;5.650;2022-07-23T14:31:34;6.80;;;2.28;;
44822;SDS011;51097;51.984;5.650;2022-07-23T14:34:00;2.50;;;2.30;;
44822;SDS011;51097;51.984;5.650;2022-07-23T14:36:26;4.75;;;2.45;;
44822;SDS011;51097;51.984;5.650;2022-07-23T14:38:52;3.05;;;2.33;;
44822;SDS011;51097;51.984;5.650;2022-07-23T14:41:17;2.72;;;2.28;;
44822;SDS011;51097;51.984;5.650;2022-07-23T14:43:43;2.63;;;2.42;;
44822;SDS011;51097;51.984;5.650;2022-07-23T14:46:09;4.82;;;2.42;;
44822;SDS011;51097;51.984;5.650;2022-07-23T14:48:36;5.00;;;2.45;;
44822;SDS011;51097;51.984;5.650;2022-07-23T14:51:02;3.97;;;2.90;;
44822;SDS011;51097;51.984;5.650;2022-07-23T14:53:28;2.30;;;2.10;;
44822;SDS011;51097;51.984;5.650;2022-07-23T14:55:54;2.22;;;2.03;;
44822;SDS011;51097;51.984;5.650;2022-07-23T14:58:21;5.70;;;2.22;;
44822;SDS011;51097;51.984;5.650;2022-07-23T15:00:48;4.53;;;2.03;;
44822;SDS011;51097;51.984;5.650;2022-07-23T15:03:13;3.33;;;2.13;;
44822;SDS011;51097;51.984;5.650;2022-07-23T15:05:39;3.05;;;2.50;;
44822;SDS011;51097;51.984;5.650;2022-07-23T15:08:05;2.55;;;2.35;;
44822;SDS011;51097;51.984;5.650;2022-07-23T15:10:30;3.15;;;2.15;;
44822;SDS011;51097;51.984;5.650;2022-07-23T15:12:56;3.13;;;2.03;;
44822;SDS011;51097;51.984;5.650;2022-07-23T15:15:21;4.72;;;2.08;;
44822;SDS011;51097;51.984;5.650;2022-07-23T15:17:47;1.98;;;1.88;;
44822;SDS011;51097;51.984;5.650;2022-07-23T15:20:12;2.55;;;2.13;;
44822;SDS011;51097;51.984;5.650;2022-07-23T15:22:39;2.58;;;2.28;;